sensor_id;sensor_type;location;lat;lon;timestamp;P1;durP1;ratioP1;P2;durP2;ratioP2
62687;SDS011;48752;51.056;17.056;2022-08-19T00:01:37;13.90;;;8.50;;
62687;SDS011;48752;51.056;17.056;2022-08-19T00:04:05;10.27;;;8.85;;
62687;SDS011;48752;51.056;17.056;2022-08-19T00:06:34;10.13;;;8.63;;
62687;SDS011;48752;51.056;17.056;2022-08-19T00:09:03;11.00;;;8.52;;
62687;SDS011;48752;51.056;17.056;2022-08-19T00:11:29;10.43;;;8.70;;
62687;SDS011;48752;51.056;17.056;2022-08-19T00:13:55;10.45;;;8.38;;
62687;SDS011;48752;51.056;17.056;2022-08-19T00:16:23;11.00;;;8.63;;
62687;SDS011;48752;51.056;17.056;2022-08-19T00:18:53;10.02;;;8.27;;
62687;SDS011;48752;51.056;17.056;2022-08-19T00:21:21;14.52;;;9.07;;
62687;SDS011;48752;51.056;17.056;2022-08-19T00:23:52;13.50;;;8.77;;
62687;SDS011;48752;51.056;17.056;2022-08-19T00:26:18;12.55;;;8.60;;
62687;SDS011;48752;51.056;17.056;2022-08-19T00:28:48;11.13;;;8.75;;
62687;SDS011;48752;51.056;17.056;2022-08-19T00:31:15;11.50;;;8.35;;
62687;SDS011;48752;51.056;17.056;2022-08-19T00:33:42;12.23;;;8.77;;
62687;SDS011;48752;51.056;17.056;2022-08-19T00:36:08;13.07;;;8.73;;
62687;SDS011;48752;51.056;17.056;2022-08-19T00:38:36;11.98;;;8.23;;
62687;SDS011;48752;51.056;17.056;2022-08-19T00:41:04;12.00;;;9.27;;
62687;SDS011;48752;51.056;17.056;2022-08-19T00:43:32;11.38;;;8.35;;
62687;SDS011;48752;51.056;17.056;2022-08-19T00:45:58;10.95;;;9.48;;
62687;SDS011;48752;51.056;17.056;2022-08-19T00:48:25;11.23;;;9.30;;
62687;SDS011;48752;51.056;17.056;2022-08-19T00:50:52;11.48;;;9.60;;
62687;SDS011;48752;51.056;17.056;2022-08-19T00:53:28;10.98;;;8.45;;
62687;SDS011;48752;51.056;17.056;2022-08-19T00:55:56;11.00;;;8.48;;
62687;SDS011;48752;51.056;17.056;2022-08-19T00:58:27;13.13;;;9.52;;
62687;SDS011;48752;51.056;17.056;2022-08-19T01:01:03;10.38;;;8.90;;
62687;SDS011;48752;51.056;17.056;2022-08-19T01:03:37;12.23;;;9.43;;
62687;SDS011;48752;51.056;17.056;2022-08-19T01:06:04;11.90;;;9.43;;
62687;SDS011;48752;51.056;17.056;2022-08-19T01:08:30;11.70;;;10.00;;
62687;SDS011;48752;51.056;17.056;2022-08-19T01:10:57;10.45;;;9.18;;
62687;SDS011;48752;51.056;17.056;2022-08-19T01:13:26;11.57;;;9.73;;
62687;SDS011;48752;51.056;17.056;2022-08-19T01:16:05;11.30;;;9.20;;
62687;SDS011;48752;51.056;17.056;2022-08-19T01:18:35;10.32;;;9.18;;
62687;SDS011;48752;51.056;17.056;2022-08-19T01:21:07;10.95;;;9.23;;
62687;SDS011;48752;51.056;17.056;2022-08-19T01:23:55;12.65;;;9.07;;
62687;SDS011;48752;51.056;17.056;2022-08-19T01:26:22;13.35;;;9.07;;
62687;SDS011;48752;51.056;17.056;2022-08-19T01:28:49;12.43;;;8.55;;
62687;SDS011;48752;51.056;17.056;2022-08-19T01:31:18;10.95;;;8.43;;
62687;SDS011;48752;51.056;17.056;2022-08-19T01:33:52;11.52;;;9.10;;
62687;SDS011;48752;51.056;17.056;2022-08-19T01:39:09;11.07;;;8.48;;
62687;SDS011;48752;51.056;17.056;2022-08-19T01:41:37;14.05;;;8.38;;
62687;SDS011;48752;51.056;17.056;2022-08-19T01:44:20;12.45;;;9.55;;
62687;SDS011;48752;51.056;17.056;2022-08-19T01:46:49;10.45;;;8.40;;
62687;SDS011;48752;51.056;17.056;2022-08-19T01:49:21;10.15;;;9.18;;
62687;SDS011;48752;51.056;17.056;2022-08-19T01:51:54;11.43;;;9.10;;
62687;SDS011;48752;51.056;17.056;2022-08-19T01:54:21;9.80;;;7.95;;
62687;SDS011;48752;51.056;17.056;2022-08-19T01:56:48;15.00;;;9.70;;
62687;SDS011;48752;51.056;17.056;2022-08-19T01:59:16;11.25;;;9.02;;
62687;SDS011;48752;51.056;17.056;2022-08-19T02:01:44;12.90;;;9.38;;
62687;SDS011;48752;51.056;17.056;2022-08-19T02:04:18;10.90;;;9.27;;
62687;SDS011;48752;51.056;17.056;2022-08-19T02:06:43;13.55;;;9.18;;
62687;SDS011;48752;51.056;17.056;2022-08-19T02:09:09;10.27;;;8.48;;
62687;SDS011;48752;51.056;17.056;2022-08-19T02:11:36;10.50;;;8.93;;
62687;SDS011;48752;51.056;17.056;2022-08-19T02:14:06;13.93;;;9.77;;
62687;SDS011;48752;51.056;17.056;2022-08-19T02:16:40;14.68;;;9.85;;
62687;SDS011;48752;51.056;17.056;2022-08-19T02:19:06;10.77;;;8.93;;
62687;SDS011;48752;51.056;17.056;2022-08-19T02:21:33;9.93;;;8.77;;
62687;SDS011;48752;51.056;17.056;2022-08-19T02:24:00;12.80;;;10.32;;
62687;SDS011;48752;51.056;17.056;2022-08-19T02:26:31;10.82;;;8.77;;
62687;SDS011;48752;51.056;17.056;2022-08-19T02:28:59;10.60;;;9.10;;
62687;SDS011;48752;51.056;17.056;2022-08-19T02:31:26;11.05;;;8.82;;
62687;SDS011;48752;51.056;17.056;2022-08-19T02:33:54;9.80;;;8.75;;
62687;SDS011;48752;51.056;17.056;2022-08-19T02:36:21;12.82;;;9.68;;
62687;SDS011;48752;51.056;17.056;2022-08-19T02:38:49;12.27;;;9.85;;
62687;SDS011;48752;51.056;17.056;2022-08-19T02:41:16;13.18;;;9.25;;
62687;SDS011;48752;51.056;17.056;2022-08-19T02:43:45;11.27;;;9.38;;
62687;SDS011;48752;51.056;17.056;2022-08-19T02:46:20;12.38;;;9.65;;
62687;SDS011;48752;51.056;17.056;2022-08-19T02:48:51;10.52;;;9.43;;
62687;SDS011;48752;51.056;17.056;2022-08-19T02:51:19;13.45;;;10.00;;
62687;SDS011;48752;51.056;17.056;2022-08-19T02:53:55;12.27;;;9.38;;
62687;SDS011;48752;51.056;17.056;2022-08-19T02:56:23;13.38;;;10.13;;
62687;SDS011;48752;51.056;17.056;2022-08-19T02:58:51;12.88;;;9.85;;
62687;SDS011;48752;51.056;17.056;2022-08-19T03:01:22;11.40;;;9.75;;
62687;SDS011;48752;51.056;17.056;2022-08-19T03:03:48;10.30;;;8.63;;
62687;SDS011;48752;51.056;17.056;2022-08-19T03:06:22;12.15;;;9.55;;
62687;SDS011;48752;51.056;17.056;2022-08-19T03:08:49;12.23;;;10.52;;
62687;SDS011;48752;51.056;17.056;2022-08-19T03:11:18;13.68;;;10.20;;
62687;SDS011;48752;51.056;17.056;2022-08-19T03:13:48;17.02;;;11.30;;
62687;SDS011;48752;51.056;17.056;2022-08-19T03:16:15;13.85;;;11.10;;
62687;SDS011;48752;51.056;17.056;2022-08-19T03:18:42;15.18;;;10.70;;
62687;SDS011;48752;51.056;17.056;2022-08-19T03:21:08;12.38;;;10.52;;
62687;SDS011;48752;51.056;17.056;2022-08-19T03:23:35;14.60;;;9.73;;
62687;SDS011;48752;51.056;17.056;2022-08-19T03:26:03;13.15;;;10.85;;
62687;SDS011;48752;51.056;17.056;2022-08-19T03:28:30;15.13;;;10.68;;
62687;SDS011;48752;51.056;17.056;2022-08-19T03:31:17;19.98;;;11.25;;
62687;SDS011;48752;51.056;17.056;2022-08-19T03:33:45;13.70;;;10.43;;
62687;SDS011;48752;51.056;17.056;2022-08-19T03:36:13;16.02;;;10.73;;
62687;SDS011;48752;51.056;17.056;2022-08-19T03:38:41;16.95;;;11.75;;
62687;SDS011;48752;51.056;17.056;2022-08-19T03:41:11;14.23;;;11.25;;
62687;SDS011;48752;51.056;17.056;2022-08-19T03:43:56;13.88;;;10.98;;
62687;SDS011;48752;51.056;17.056;2022-08-19T03:46:28;13.68;;;11.18;;
62687;SDS011;48752;51.056;17.056;2022-08-19T03:49:03;13.45;;;11.45;;
62687;SDS011;48752;51.056;17.056;2022-08-19T03:51:34;16.48;;;11.55;;
62687;SDS011;48752;51.056;17.056;2022-08-19T03:54:05;15.77;;;11.68;;
62687;SDS011;48752;51.056;17.056;2022-08-19T03:56:36;19.00;;;14.82;;
62687;SDS011;48752;51.056;17.056;2022-08-19T03:59:04;15.27;;;12.35;;
62687;SDS011;48752;51.056;17.056;2022-08-19T04:01:34;16.17;;;12.07;;
62687;SDS011;48752;51.056;17.056;2022-08-19T04:04:01;13.88;;;11.52;;
62687;SDS011;48752;51.056;17.056;2022-08-19T04:06:28;15.82;;;11.70;;
62687;SDS011;48752;51.056;17.056;2022-08-19T04:08:57;13.25;;;10.55;;
62687;SDS011;48752;51.056;17.056;2022-08-19T04:11:27;18.52;;;12.68;;
62687;SDS011;48752;51.056;17.056;2022-08-19T04:14:04;16.38;;;12.80;;
62687;SDS011;48752;51.056;17.056;2022-08-19T04:16:30;15.30;;;11.80;;
62687;SDS011;48752;51.056;17.056;2022-08-19T04:18:59;18.55;;;11.88;;
62687;SDS011;48752;51.056;17.056;2022-08-19T04:21:26;15.20;;;12.15;;
62687;SDS011;48752;51.056;17.056;2022-08-19T04:23:54;18.08;;;11.77;;
62687;SDS011;48752;51.056;17.056;2022-08-19T04:26:29;17.90;;;13.02;;
62687;SDS011;48752;51.056;17.056;2022-08-19T04:29:05;16.98;;;11.88;;
62687;SDS011;48752;51.056;17.056;2022-08-19T04:31:33;20.63;;;13.07;;
62687;SDS011;48752;51.056;17.056;2022-08-19T04:34:04;14.63;;;11.55;;
62687;SDS011;48752;51.056;17.056;2022-08-19T04:36:31;16.98;;;13.02;;
62687;SDS011;48752;51.056;17.056;2022-08-19T04:38:59;13.10;;;11.68;;
62687;SDS011;48752;51.056;17.056;2022-08-19T04:41:28;14.93;;;12.48;;
62687;SDS011;48752;51.056;17.056;2022-08-19T04:44:13;15.15;;;11.55;;
62687;SDS011;48752;51.056;17.056;2022-08-19T04:46:44;15.15;;;12.40;;
62687;SDS011;48752;51.056;17.056;2022-08-19T04:49:12;19.67;;;13.05;;
62687;SDS011;48752;51.056;17.056;2022-08-19T04:51:40;18.80;;;12.52;;
62687;SDS011;48752;51.056;17.056;2022-08-19T04:54:12;15.55;;;12.30;;
62687;SDS011;48752;51.056;17.056;2022-08-19T04:56:40;15.60;;;12.35;;
62687;SDS011;48752;51.056;17.056;2022-08-19T04:59:06;15.02;;;12.27;;
62687;SDS011;48752;51.056;17.056;2022-08-19T05:01:34;19.65;;;12.93;;
62687;SDS011;48752;51.056;17.056;2022-08-19T05:04:03;18.38;;;12.77;;
62687;SDS011;48752;51.056;17.056;2022-08-19T05:06:30;16.08;;;11.85;;
62687;SDS011;48752;51.056;17.056;2022-08-19T05:08:57;19.15;;;13.63;;
62687;SDS011;48752;51.056;17.056;2022-08-19T05:11:26;22.33;;;12.70;;
62687;SDS011;48752;51.056;17.056;2022-08-19T05:13:56;21.67;;;12.47;;
62687;SDS011;48752;51.056;17.056;2022-08-19T05:16:23;15.98;;;12.60;;
62687;SDS011;48752;51.056;17.056;2022-08-19T05:18:58;23.17;;;13.68;;
62687;SDS011;48752;51.056;17.056;2022-08-19T05:21:43;21.65;;;14.07;;
62687;SDS011;48752;51.056;17.056;2022-08-19T05:24:30;21.27;;;12.95;;
62687;SDS011;48752;51.056;17.056;2022-08-19T05:26:58;28.52;;;14.45;;
62687;SDS011;48752;51.056;17.056;2022-08-19T05:29:25;22.55;;;13.40;;
62687;SDS011;48752;51.056;17.056;2022-08-19T05:31:54;19.25;;;13.25;;
62687;SDS011;48752;51.056;17.056;2022-08-19T05:34:21;27.67;;;13.40;;
62687;SDS011;48752;51.056;17.056;2022-08-19T05:36:56;20.38;;;14.13;;
62687;SDS011;48752;51.056;17.056;2022-08-19T05:39:27;29.27;;;13.77;;
62687;SDS011;48752;51.056;17.056;2022-08-19T05:41:56;24.40;;;13.98;;
62687;SDS011;48752;51.056;17.056;2022-08-19T05:44:30;27.42;;;13.43;;
62687;SDS011;48752;51.056;17.056;2022-08-19T05:46:59;30.45;;;13.40;;
62687;SDS011;48752;51.056;17.056;2022-08-19T05:49:26;17.58;;;13.30;;
62687;SDS011;48752;51.056;17.056;2022-08-19T05:51:54;28.70;;;13.13;;
62687;SDS011;48752;51.056;17.056;2022-08-19T05:54:22;18.90;;;13.90;;
62687;SDS011;48752;51.056;17.056;2022-08-19T05:56:56;20.60;;;13.70;;
62687;SDS011;48752;51.056;17.056;2022-08-19T05:59:21;18.60;;;12.85;;
62687;SDS011;48752;51.056;17.056;2022-08-19T06:01:49;32.65;;;16.90;;
62687;SDS011;48752;51.056;17.056;2022-08-19T06:04:15;17.27;;;14.18;;
62687;SDS011;48752;51.056;17.056;2022-08-19T06:06:43;19.67;;;13.57;;
62687;SDS011;48752;51.056;17.056;2022-08-19T06:09:10;15.75;;;13.30;;
62687;SDS011;48752;51.056;17.056;2022-08-19T06:11:40;23.73;;;13.23;;
62687;SDS011;48752;51.056;17.056;2022-08-19T06:14:15;34.72;;;15.25;;
62687;SDS011;48752;51.056;17.056;2022-08-19T06:16:44;18.75;;;13.52;;
62687;SDS011;48752;51.056;17.056;2022-08-19T06:19:17;26.50;;;13.98;;
62687;SDS011;48752;51.056;17.056;2022-08-19T06:21:44;15.95;;;12.70;;
62687;SDS011;48752;51.056;17.056;2022-08-19T06:24:13;19.63;;;12.65;;
62687;SDS011;48752;51.056;17.056;2022-08-19T06:26:42;16.45;;;13.23;;
62687;SDS011;48752;51.056;17.056;2022-08-19T06:29:10;16.55;;;12.10;;
62687;SDS011;48752;51.056;17.056;2022-08-19T06:31:40;16.90;;;12.30;;
62687;SDS011;48752;51.056;17.056;2022-08-19T06:34:09;29.83;;;14.57;;
62687;SDS011;48752;51.056;17.056;2022-08-19T06:36:36;19.85;;;13.43;;
62687;SDS011;48752;51.056;17.056;2022-08-19T06:39:07;30.40;;;12.68;;
62687;SDS011;48752;51.056;17.056;2022-08-19T06:41:40;91.22;;;21.08;;
62687;SDS011;48752;51.056;17.056;2022-08-19T06:44:09;28.88;;;12.23;;
62687;SDS011;48752;51.056;17.056;2022-08-19T06:46:44;20.85;;;12.38;;
62687;SDS011;48752;51.056;17.056;2022-08-19T06:49:10;25.92;;;12.25;;
62687;SDS011;48752;51.056;17.056;2022-08-19T06:51:41;16.15;;;10.30;;
62687;SDS011;48752;51.056;17.056;2022-08-19T06:54:08;21.50;;;11.35;;
62687;SDS011;48752;51.056;17.056;2022-08-19T06:56:35;15.85;;;10.10;;
62687;SDS011;48752;51.056;17.056;2022-08-19T06:59:03;26.30;;;11.13;;
62687;SDS011;48752;51.056;17.056;2022-08-19T07:01:33;16.15;;;10.30;;
62687;SDS011;48752;51.056;17.056;2022-08-19T07:04:06;16.50;;;10.43;;
62687;SDS011;48752;51.056;17.056;2022-08-19T07:06:35;12.93;;;9.70;;
62687;SDS011;48752;51.056;17.056;2022-08-19T07:09:04;24.35;;;10.52;;
62687;SDS011;48752;51.056;17.056;2022-08-19T07:11:30;12.95;;;9.02;;
62687;SDS011;48752;51.056;17.056;2022-08-19T07:13:58;12.52;;;9.15;;
62687;SDS011;48752;51.056;17.056;2022-08-19T07:16:27;13.00;;;8.27;;
62687;SDS011;48752;51.056;17.056;2022-08-19T07:18:58;11.13;;;8.10;;
62687;SDS011;48752;51.056;17.056;2022-08-19T07:21:33;23.40;;;10.45;;
62687;SDS011;48752;51.056;17.056;2022-08-19T07:26:31;37.63;;;8.90;;
62687;SDS011;48752;51.056;17.056;2022-08-19T07:34:08;13.77;;;7.77;;
62687;SDS011;48752;51.056;17.056;2022-08-19T07:36:37;15.85;;;7.68;;
62687;SDS011;48752;51.056;17.056;2022-08-19T07:39:08;9.43;;;7.28;;
62687;SDS011;48752;51.056;17.056;2022-08-19T07:41:37;9.43;;;8.13;;
62687;SDS011;48752;51.056;17.056;2022-08-19T07:44:04;11.98;;;7.60;;
62687;SDS011;48752;51.056;17.056;2022-08-19T07:46:36;8.52;;;7.45;;
62687;SDS011;48752;51.056;17.056;2022-08-19T07:49:06;14.82;;;8.13;;
62687;SDS011;48752;51.056;17.056;2022-08-19T07:52:06;24.83;;;7.45;;
62687;SDS011;48752;51.056;17.056;2022-08-19T07:54:31;10.65;;;7.05;;
62687;SDS011;48752;51.056;17.056;2022-08-19T07:56:59;10.93;;;6.90;;
62687;SDS011;48752;51.056;17.056;2022-08-19T07:59:26;12.93;;;6.93;;
62687;SDS011;48752;51.056;17.056;2022-08-19T08:01:53;15.57;;;8.02;;
62687;SDS011;48752;51.056;17.056;2022-08-19T08:04:20;12.07;;;6.75;;
62687;SDS011;48752;51.056;17.056;2022-08-19T08:07:06;14.13;;;7.70;;
62687;SDS011;48752;51.056;17.056;2022-08-19T08:09:52;30.88;;;10.57;;
62687;SDS011;48752;51.056;17.056;2022-08-19T08:12:26;9.15;;;6.13;;
62687;SDS011;48752;51.056;17.056;2022-08-19T08:14:57;8.20;;;6.57;;
62687;SDS011;48752;51.056;17.056;2022-08-19T08:17:28;13.48;;;7.35;;
62687;SDS011;48752;51.056;17.056;2022-08-19T08:19:55;10.73;;;6.53;;
62687;SDS011;48752;51.056;17.056;2022-08-19T08:22:24;13.50;;;7.10;;
62687;SDS011;48752;51.056;17.056;2022-08-19T08:25:17;13.65;;;6.60;;
62687;SDS011;48752;51.056;17.056;2022-08-19T08:27:47;20.90;;;7.55;;
62687;SDS011;48752;51.056;17.056;2022-08-19T08:30:21;11.55;;;7.05;;
62687;SDS011;48752;51.056;17.056;2022-08-19T08:32:55;11.00;;;6.45;;
62687;SDS011;48752;51.056;17.056;2022-08-19T08:35:22;10.07;;;7.32;;
62687;SDS011;48752;51.056;17.056;2022-08-19T08:37:49;13.30;;;6.55;;
62687;SDS011;48752;51.056;17.056;2022-08-19T08:40:30;11.65;;;7.13;;
62687;SDS011;48752;51.056;17.056;2022-08-19T08:43:06;15.10;;;7.57;;
62687;SDS011;48752;51.056;17.056;2022-08-19T08:45:36;8.43;;;7.00;;
62687;SDS011;48752;51.056;17.056;2022-08-19T08:48:14;9.27;;;6.13;;
62687;SDS011;48752;51.056;17.056;2022-08-19T08:50:45;15.15;;;7.65;;
62687;SDS011;48752;51.056;17.056;2022-08-19T08:53:13;9.70;;;6.72;;
62687;SDS011;48752;51.056;17.056;2022-08-19T08:55:41;9.02;;;6.68;;
62687;SDS011;48752;51.056;17.056;2022-08-19T08:58:09;9.82;;;6.35;;
62687;SDS011;48752;51.056;17.056;2022-08-19T09:00:46;11.73;;;7.00;;
62687;SDS011;48752;51.056;17.056;2022-08-19T09:06:07;9.23;;;6.68;;
62687;SDS011;48752;51.056;17.056;2022-08-19T09:08:48;8.23;;;6.22;;
62687;SDS011;48752;51.056;17.056;2022-08-19T09:12:07;7.18;;;6.20;;
62687;SDS011;48752;51.056;17.056;2022-08-19T09:17:19;8.20;;;6.78;;
62687;SDS011;48752;51.056;17.056;2022-08-19T09:22:46;7.50;;;6.13;;
62687;SDS011;48752;51.056;17.056;2022-08-19T09:25:17;12.40;;;6.47;;
62687;SDS011;48752;51.056;17.056;2022-08-19T09:27:50;17.90;;;8.15;;
62687;SDS011;48752;51.056;17.056;2022-08-19T09:30:18;10.95;;;7.00;;
62687;SDS011;48752;51.056;17.056;2022-08-19T09:32:46;15.07;;;7.38;;
62687;SDS011;48752;51.056;17.056;2022-08-19T09:35:14;16.95;;;7.75;;
62687;SDS011;48752;51.056;17.056;2022-08-19T09:37:48;16.60;;;7.53;;
62687;SDS011;48752;51.056;17.056;2022-08-19T09:40:16;12.15;;;6.57;;
62687;SDS011;48752;51.056;17.056;2022-08-19T09:42:50;16.85;;;7.68;;
62687;SDS011;48752;51.056;17.056;2022-08-19T09:45:23;32.47;;;11.13;;
62687;SDS011;48752;51.056;17.056;2022-08-19T09:47:49;8.90;;;7.13;;
62687;SDS011;48752;51.056;17.056;2022-08-19T09:50:15;9.95;;;7.72;;
62687;SDS011;48752;51.056;17.056;2022-08-19T09:52:44;19.20;;;6.80;;
62687;SDS011;48752;51.056;17.056;2022-08-19T09:55:13;45.78;;;11.52;;
62687;SDS011;48752;51.056;17.056;2022-08-19T09:57:39;13.27;;;7.10;;
62687;SDS011;48752;51.056;17.056;2022-08-19T10:00:06;11.63;;;6.35;;
62687;SDS011;48752;51.056;17.056;2022-08-19T10:02:33;11.13;;;5.75;;
62687;SDS011;48752;51.056;17.056;2022-08-19T10:04:58;13.48;;;6.78;;
62687;SDS011;48752;51.056;17.056;2022-08-19T10:07:44;10.57;;;6.72;;
62687;SDS011;48752;51.056;17.056;2022-08-19T10:10:10;14.27;;;6.65;;
62687;SDS011;48752;51.056;17.056;2022-08-19T10:12:35;12.27;;;6.47;;
62687;SDS011;48752;51.056;17.056;2022-08-19T10:15:03;9.45;;;5.55;;
62687;SDS011;48752;51.056;17.056;2022-08-19T10:17:38;13.48;;;5.63;;
62687;SDS011;48752;51.056;17.056;2022-08-19T10:20:05;12.43;;;5.97;;
62687;SDS011;48752;51.056;17.056;2022-08-19T10:22:31;11.10;;;5.90;;
62687;SDS011;48752;51.056;17.056;2022-08-19T10:24:57;5.97;;;5.32;;
62687;SDS011;48752;51.056;17.056;2022-08-19T10:27:23;16.30;;;7.15;;
62687;SDS011;48752;51.056;17.056;2022-08-19T10:29:49;8.88;;;6.18;;
62687;SDS011;48752;51.056;17.056;2022-08-19T10:32:15;12.98;;;6.32;;
62687;SDS011;48752;51.056;17.056;2022-08-19T10:34:43;8.63;;;5.68;;
62687;SDS011;48752;51.056;17.056;2022-08-19T10:37:09;8.80;;;5.93;;
62687;SDS011;48752;51.056;17.056;2022-08-19T10:39:35;13.73;;;6.38;;
62687;SDS011;48752;51.056;17.056;2022-08-19T10:42:05;6.72;;;4.85;;
62687;SDS011;48752;51.056;17.056;2022-08-19T10:44:31;13.18;;;6.90;;
62687;SDS011;48752;51.056;17.056;2022-08-19T10:46:57;36.35;;;9.68;;
62687;SDS011;48752;51.056;17.056;2022-08-19T10:49:23;13.82;;;5.65;;
62687;SDS011;48752;51.056;17.056;2022-08-19T10:51:49;24.60;;;6.53;;
62687;SDS011;48752;51.056;17.056;2022-08-19T10:54:34;57.53;;;9.40;;
62687;SDS011;48752;51.056;17.056;2022-08-19T10:57:19;10.95;;;5.35;;
62687;SDS011;48752;51.056;17.056;2022-08-19T10:59:50;7.25;;;5.30;;
62687;SDS011;48752;51.056;17.056;2022-08-19T11:02:15;6.80;;;4.95;;
62687;SDS011;48752;51.056;17.056;2022-08-19T11:04:46;7.53;;;5.43;;
62687;SDS011;48752;51.056;17.056;2022-08-19T11:07:15;9.20;;;5.03;;
62687;SDS011;48752;51.056;17.056;2022-08-19T11:09:41;7.50;;;5.28;;
62687;SDS011;48752;51.056;17.056;2022-08-19T11:12:07;7.20;;;4.93;;
62687;SDS011;48752;51.056;17.056;2022-08-19T11:14:34;17.90;;;6.63;;
62687;SDS011;48752;51.056;17.056;2022-08-19T11:17:03;9.70;;;5.93;;
62687;SDS011;48752;51.056;17.056;2022-08-19T11:19:29;14.82;;;6.78;;
62687;SDS011;48752;51.056;17.056;2022-08-19T11:21:55;11.52;;;5.38;;
62687;SDS011;48752;51.056;17.056;2022-08-19T11:24:22;12.63;;;5.88;;
62687;SDS011;48752;51.056;17.056;2022-08-19T11:26:50;7.32;;;4.95;;
62687;SDS011;48752;51.056;17.056;2022-08-19T11:29:17;5.10;;;4.18;;
62687;SDS011;48752;51.056;17.056;2022-08-19T11:31:47;12.73;;;5.25;;
62687;SDS011;48752;51.056;17.056;2022-08-19T11:34:19;8.55;;;4.90;;
62687;SDS011;48752;51.056;17.056;2022-08-19T11:36:52;10.48;;;5.90;;
62687;SDS011;48752;51.056;17.056;2022-08-19T11:39:20;11.98;;;5.50;;
62687;SDS011;48752;51.056;17.056;2022-08-19T11:41:47;10.20;;;5.10;;
62687;SDS011;48752;51.056;17.056;2022-08-19T11:44:13;8.48;;;5.18;;
62687;SDS011;48752;51.056;17.056;2022-08-19T11:46:39;26.95;;;7.85;;
62687;SDS011;48752;51.056;17.056;2022-08-19T11:49:07;8.55;;;3.97;;
62687;SDS011;48752;51.056;17.056;2022-08-19T11:51:34;12.68;;;4.25;;
62687;SDS011;48752;51.056;17.056;2022-08-19T11:54:00;10.15;;;3.20;;
62687;SDS011;48752;51.056;17.056;2022-08-19T11:56:26;6.57;;;4.13;;
62687;SDS011;48752;51.056;17.056;2022-08-19T11:58:53;7.03;;;3.13;;
62687;SDS011;48752;51.056;17.056;2022-08-19T12:01:23;11.43;;;4.60;;
62687;SDS011;48752;51.056;17.056;2022-08-19T12:03:51;10.88;;;4.10;;
62687;SDS011;48752;51.056;17.056;2022-08-19T12:06:19;8.57;;;3.80;;
62687;SDS011;48752;51.056;17.056;2022-08-19T12:08:49;9.13;;;3.30;;
62687;SDS011;48752;51.056;17.056;2022-08-19T12:11:14;8.93;;;3.53;;
62687;SDS011;48752;51.056;17.056;2022-08-19T12:13:40;10.60;;;3.50;;
62687;SDS011;48752;51.056;17.056;2022-08-19T12:16:09;16.88;;;4.72;;
62687;SDS011;48752;51.056;17.056;2022-08-19T12:18:37;11.18;;;3.50;;
62687;SDS011;48752;51.056;17.056;2022-08-19T12:21:05;5.32;;;3.85;;
62687;SDS011;48752;51.056;17.056;2022-08-19T12:23:31;7.75;;;3.30;;
62687;SDS011;48752;51.056;17.056;2022-08-19T12:25:59;54.13;;;8.48;;
62687;SDS011;48752;51.056;17.056;2022-08-19T12:28:27;10.82;;;3.35;;
62687;SDS011;48752;51.056;17.056;2022-08-19T12:30:52;9.27;;;3.80;;
62687;SDS011;48752;51.056;17.056;2022-08-19T12:33:19;18.35;;;3.85;;
62687;SDS011;48752;51.056;17.056;2022-08-19T12:35:50;6.90;;;3.60;;
62687;SDS011;48752;51.056;17.056;2022-08-19T12:38:16;12.07;;;4.43;;
62687;SDS011;48752;51.056;17.056;2022-08-19T12:40:41;17.35;;;5.88;;
62687;SDS011;48752;51.056;17.056;2022-08-19T12:43:11;11.95;;;4.07;;
62687;SDS011;48752;51.056;17.056;2022-08-19T12:45:39;10.38;;;4.43;;
62687;SDS011;48752;51.056;17.056;2022-08-19T12:48:06;13.25;;;4.75;;
62687;SDS011;48752;51.056;17.056;2022-08-19T12:50:32;7.50;;;4.00;;
62687;SDS011;48752;51.056;17.056;2022-08-19T12:52:57;19.73;;;4.50;;
62687;SDS011;48752;51.056;17.056;2022-08-19T12:55:23;28.45;;;5.72;;
62687;SDS011;48752;51.056;17.056;2022-08-19T12:57:49;12.25;;;3.90;;
62687;SDS011;48752;51.056;17.056;2022-08-19T13:00:18;7.63;;;2.75;;
62687;SDS011;48752;51.056;17.056;2022-08-19T13:02:50;6.63;;;3.17;;
62687;SDS011;48752;51.056;17.056;2022-08-19T13:05:24;6.13;;;3.35;;
62687;SDS011;48752;51.056;17.056;2022-08-19T13:07:53;6.47;;;3.10;;
62687;SDS011;48752;51.056;17.056;2022-08-19T13:10:21;6.57;;;3.38;;
62687;SDS011;48752;51.056;17.056;2022-08-19T13:12:50;14.07;;;3.80;;
62687;SDS011;48752;51.056;17.056;2022-08-19T13:15:17;7.65;;;3.17;;
62687;SDS011;48752;51.056;17.056;2022-08-19T13:17:46;12.43;;;3.40;;
62687;SDS011;48752;51.056;17.056;2022-08-19T13:20:14;51.83;;;11.40;;
62687;SDS011;48752;51.056;17.056;2022-08-19T13:22:42;107.75;;;22.33;;
62687;SDS011;48752;51.056;17.056;2022-08-19T13:25:10;14.85;;;5.43;;
62687;SDS011;48752;51.056;17.056;2022-08-19T13:27:42;8.60;;;3.55;;
62687;SDS011;48752;51.056;17.056;2022-08-19T13:30:08;5.53;;;3.25;;
62687;SDS011;48752;51.056;17.056;2022-08-19T13:32:55;7.60;;;3.55;;
62687;SDS011;48752;51.056;17.056;2022-08-19T13:41:04;6.05;;;3.13;;
62687;SDS011;48752;51.056;17.056;2022-08-19T13:43:30;7.03;;;3.08;;
62687;SDS011;48752;51.056;17.056;2022-08-19T13:45:55;9.20;;;3.70;;
62687;SDS011;48752;51.056;17.056;2022-08-19T13:48:25;6.03;;;3.40;;
62687;SDS011;48752;51.056;17.056;2022-08-19T13:50:58;6.30;;;4.00;;
62687;SDS011;48752;51.056;17.056;2022-08-19T13:53:24;12.88;;;4.32;;
62687;SDS011;48752;51.056;17.056;2022-08-19T13:55:49;11.43;;;3.38;;
62687;SDS011;48752;51.056;17.056;2022-08-19T13:58:16;14.43;;;4.65;;
62687;SDS011;48752;51.056;17.056;2022-08-19T14:03:14;7.80;;;3.08;;
62687;SDS011;48752;51.056;17.056;2022-08-19T14:05:43;17.30;;;4.20;;
62687;SDS011;48752;51.056;17.056;2022-08-19T14:08:11;11.82;;;5.18;;
62687;SDS011;48752;51.056;17.056;2022-08-19T14:10:41;26.08;;;5.03;;
62687;SDS011;48752;51.056;17.056;2022-08-19T14:13:09;17.60;;;4.97;;
62687;SDS011;48752;51.056;17.056;2022-08-19T14:15:35;11.55;;;4.18;;
62687;SDS011;48752;51.056;17.056;2022-08-19T14:18:02;4.15;;;3.40;;
62687;SDS011;48752;51.056;17.056;2022-08-19T14:20:29;9.13;;;3.40;;
62687;SDS011;48752;51.056;17.056;2022-08-19T14:22:55;4.18;;;3.15;;
62687;SDS011;48752;51.056;17.056;2022-08-19T14:25:25;6.13;;;3.60;;
62687;SDS011;48752;51.056;17.056;2022-08-19T14:27:55;8.07;;;3.53;;
62687;SDS011;48752;51.056;17.056;2022-08-19T14:30:24;7.57;;;3.60;;
62687;SDS011;48752;51.056;17.056;2022-08-19T14:32:53;18.95;;;5.05;;
62687;SDS011;48752;51.056;17.056;2022-08-19T14:37:56;15.27;;;5.35;;
62687;SDS011;48752;51.056;17.056;2022-08-19T14:40:23;18.45;;;4.63;;
62687;SDS011;48752;51.056;17.056;2022-08-19T14:42:53;13.00;;;3.50;;
62687;SDS011;48752;51.056;17.056;2022-08-19T14:45:25;11.55;;;3.53;;
62687;SDS011;48752;51.056;17.056;2022-08-19T14:47:52;8.07;;;3.30;;
62687;SDS011;48752;51.056;17.056;2022-08-19T14:50:18;9.70;;;3.30;;
62687;SDS011;48752;51.056;17.056;2022-08-19T14:53:03;9.75;;;4.10;;
62687;SDS011;48752;51.056;17.056;2022-08-19T14:55:31;9.38;;;4.03;;
62687;SDS011;48752;51.056;17.056;2022-08-19T14:57:57;9.18;;;3.70;;
62687;SDS011;48752;51.056;17.056;2022-08-19T15:00:23;10.10;;;4.28;;
62687;SDS011;48752;51.056;17.056;2022-08-19T15:02:50;6.57;;;4.32;;
62687;SDS011;48752;51.056;17.056;2022-08-19T15:05:24;9.27;;;4.68;;